Thursday, September 20, 2018, 8:21 PM GMT
Back to Local

CWVQ, Ste Anne De Bell 1

Location: , , Canada Lat: 45.433
Local Time: 8:21 PM GMT (20:21 GMT) Lon: -73.933
Time Zone: GMT Elev: 127 ft

Show me the last for .
Show Coded

Time T Td Feel RH Dir Speed Gust Alt SLP Vis Weather Sky Remarks
2018-09-20 20:00 61 51 - 68 40° 3 - - 30.24 0 None
2018-09-20 19:00 60 51 - 70 90° 1 - - 30.25 0 None
2018-09-20 18:00 59 49 - 70 50° 3 - - 30.26 0 None
2018-09-20 17:00 58 52 - 80 20° 5 - - 30.26 0 None
2018-09-20 16:00 56 50 - 80 40° 3 - - 30.27 0 None
2018-09-20 15:00 55 50 - 83 60° 5 - - 30.27 0 None
2018-09-20 14:00 53 49 - 86 70° 5 - - 30.27 0 None
2018-09-20 13:00 52 49 - 89 90° 7 - - 30.27 0 None
2018-09-20 12:00 49 49 47 98 10° 5 - - 30.27 0 None
2018-09-20 11:00 50 49 48 94 40° 5 - - 30.24 0 None
2018-09-20 10:00 49 48 47 94 20° 6 - - 30.22 0 None
2018-09-20 09:00 49 46 48 88 50° 3 - - 30.18 0 None
2018-09-20 08:00 47 45 46 92 340° 3 - - 30.17 0 None
2018-09-20 07:00 50 46 - 88 10° 2 - - 30.17 0 None
2018-09-20 06:00 50 46 - 85 360° 5 - - 30.18 0 None
2018-09-20 05:00 56 49 - 77 80° 2 - - 30.17 0 None
2018-09-20 04:00 58 49 - 73 90° 7 - - 30.16 0 None
2018-09-20 03:00 58 49 - 72 70° 3 - - 30.17 0 None
2018-09-20 02:00 56 49 - 75 70° 5 - - 30.15 0 None
2018-09-20 01:00 58 49 - 71 70° 5 - - 30.16 0 None
2018-09-20 00:00 59 49 - 68 90° 5 - - 30.14 0 None
2018-09-19 23:00 58 47 - 67 60° 3 - - 30.11 0 None
2018-09-19 22:00 61 47 - 59 70° 5 - - 30.10 0 None
2018-09-19 21:00 60 46 - 60 50° 6 - - 30.10 0 None

Support USWX by starting your Amazon purchase here.